sensor_id;sensor_type;location;lat;lon;timestamp;P1;durP1;ratioP1;P2;durP2;ratioP2
11191;SDS011;5652;48.406;10.820;2023-05-24T00:00:43;4.25;;;3.80;;
11191;SDS011;5652;48.406;10.820;2023-05-24T00:03:10;4.33;;;3.93;;
11191;SDS011;5652;48.406;10.820;2023-05-24T00:05:39;4.18;;;3.75;;
11191;SDS011;5652;48.406;10.820;2023-05-24T00:08:07;4.93;;;4.10;;
11191;SDS011;5652;48.406;10.820;2023-05-24T00:10:34;5.40;;;3.60;;
11191;SDS011;5652;48.406;10.820;2023-05-24T00:13:03;4.30;;;3.90;;
11191;SDS011;5652;48.406;10.820;2023-05-24T00:15:30;4.50;;;4.05;;
11191;SDS011;5652;48.406;10.820;2023-05-24T00:17:57;6.35;;;3.95;;
11191;SDS011;5652;48.406;10.820;2023-05-24T00:20:24;6.40;;;4.00;;
11191;SDS011;5652;48.406;10.820;2023-05-24T00:22:51;5.00;;;3.90;;
11191;SDS011;5652;48.406;10.820;2023-05-24T00:25:18;6.43;;;4.28;;
11191;SDS011;5652;48.406;10.820;2023-05-24T00:27:45;4.80;;;4.30;;
11191;SDS011;5652;48.406;10.820;2023-05-24T00:30:14;4.53;;;3.80;;
11191;SDS011;5652;48.406;10.820;2023-05-24T00:32:41;5.03;;;4.00;;
11191;SDS011;5652;48.406;10.820;2023-05-24T00:35:08;5.10;;;4.10;;
11191;SDS011;5652;48.406;10.820;2023-05-24T00:37:36;5.78;;;4.22;;
11191;SDS011;5652;48.406;10.820;2023-05-24T00:40:04;4.70;;;4.18;;
11191;SDS011;5652;48.406;10.820;2023-05-24T00:42:32;4.50;;;3.97;;
11191;SDS011;5652;48.406;10.820;2023-05-24T00:44:59;4.70;;;3.95;;
11191;SDS011;5652;48.406;10.820;2023-05-24T00:47:27;5.13;;;4.25;;
11191;SDS011;5652;48.406;10.820;2023-05-24T00:49:55;5.10;;;4.20;;
11191;SDS011;5652;48.406;10.820;2023-05-24T00:52:22;5.33;;;3.93;;
11191;SDS011;5652;48.406;10.820;2023-05-24T00:54:49;5.32;;;4.20;;
11191;SDS011;5652;48.406;10.820;2023-05-24T00:57:17;5.10;;;4.20;;
11191;SDS011;5652;48.406;10.820;2023-05-24T00:59:44;4.55;;;4.05;;
11191;SDS011;5652;48.406;10.820;2023-05-24T01:02:11;5.18;;;4.00;;
11191;SDS011;5652;48.406;10.820;2023-05-24T01:04:40;5.30;;;4.50;;
11191;SDS011;5652;48.406;10.820;2023-05-24T01:07:09;5.60;;;4.35;;
11191;SDS011;5652;48.406;10.820;2023-05-24T01:09:41;6.40;;;4.53;;
11191;SDS011;5652;48.406;10.820;2023-05-24T01:12:16;5.00;;;4.30;;
11191;SDS011;5652;48.406;10.820;2023-05-24T01:14:49;5.47;;;4.50;;
11191;SDS011;5652;48.406;10.820;2023-05-24T01:17:20;5.85;;;4.63;;
11191;SDS011;5652;48.406;10.820;2023-05-24T01:19:55;5.85;;;4.65;;
11191;SDS011;5652;48.406;10.820;2023-05-24T01:22:28;5.35;;;4.72;;
11191;SDS011;5652;48.406;10.820;2023-05-24T01:25:06;6.93;;;4.82;;
11191;SDS011;5652;48.406;10.820;2023-05-24T01:27:36;7.13;;;5.15;;
11191;SDS011;5652;48.406;10.820;2023-05-24T01:30:04;6.68;;;5.25;;
11191;SDS011;5652;48.406;10.820;2023-05-24T01:32:32;6.50;;;5.07;;
11191;SDS011;5652;48.406;10.820;2023-05-24T01:35:00;7.30;;;5.03;;
11191;SDS011;5652;48.406;10.820;2023-05-24T01:37:27;7.27;;;5.60;;
11191;SDS011;5652;48.406;10.820;2023-05-24T01:39:54;7.57;;;5.07;;
11191;SDS011;5652;48.406;10.820;2023-05-24T01:42:23;6.18;;;5.10;;
11191;SDS011;5652;48.406;10.820;2023-05-24T01:44:56;8.55;;;5.20;;
11191;SDS011;5652;48.406;10.820;2023-05-24T01:47:27;7.47;;;6.10;;
11191;SDS011;5652;48.406;10.820;2023-05-24T01:49:56;9.13;;;5.53;;
11191;SDS011;5652;48.406;10.820;2023-05-24T01:52:26;6.27;;;5.07;;
11191;SDS011;5652;48.406;10.820;2023-05-24T01:54:55;6.03;;;4.68;;
11191;SDS011;5652;48.406;10.820;2023-05-24T01:57:23;7.57;;;5.18;;
11191;SDS011;5652;48.406;10.820;2023-05-24T01:59:50;7.07;;;4.57;;
11191;SDS011;5652;48.406;10.820;2023-05-24T02:02:20;6.80;;;4.70;;
11191;SDS011;5652;48.406;10.820;2023-05-24T02:04:47;7.38;;;4.90;;
11191;SDS011;5652;48.406;10.820;2023-05-24T02:07:14;7.07;;;5.20;;
11191;SDS011;5652;48.406;10.820;2023-05-24T02:09:43;6.68;;;4.60;;
11191;SDS011;5652;48.406;10.820;2023-05-24T02:12:10;7.25;;;4.53;;
11191;SDS011;5652;48.406;10.820;2023-05-24T02:14:37;8.50;;;4.75;;
11191;SDS011;5652;48.406;10.820;2023-05-24T02:17:06;6.13;;;4.38;;
11191;SDS011;5652;48.406;10.820;2023-05-24T02:19:35;6.93;;;4.30;;
11191;SDS011;5652;48.406;10.820;2023-05-24T02:22:02;7.18;;;4.55;;
11191;SDS011;5652;48.406;10.820;2023-05-24T02:24:30;8.20;;;4.50;;
11191;SDS011;5652;48.406;10.820;2023-05-24T02:26:57;8.18;;;4.25;;
11191;SDS011;5652;48.406;10.820;2023-05-24T02:29:25;7.07;;;4.00;;
11191;SDS011;5652;48.406;10.820;2023-05-24T02:31:52;6.95;;;3.97;;
11191;SDS011;5652;48.406;10.820;2023-05-24T02:34:20;6.43;;;4.00;;
11191;SDS011;5652;48.406;10.820;2023-05-24T02:36:51;8.98;;;4.47;;
11191;SDS011;5652;48.406;10.820;2023-05-24T02:39:19;7.03;;;4.13;;
11191;SDS011;5652;48.406;10.820;2023-05-24T02:41:47;5.70;;;4.20;;
11191;SDS011;5652;48.406;10.820;2023-05-24T02:44:14;5.35;;;3.85;;
11191;SDS011;5652;48.406;10.820;2023-05-24T02:46:41;7.00;;;3.95;;
11191;SDS011;5652;48.406;10.820;2023-05-24T02:49:10;4.95;;;3.60;;
11191;SDS011;5652;48.406;10.820;2023-05-24T02:51:38;5.83;;;3.90;;
11191;SDS011;5652;48.406;10.820;2023-05-24T02:54:06;6.28;;;3.80;;
11191;SDS011;5652;48.406;10.820;2023-05-24T02:56:34;6.30;;;3.90;;
11191;SDS011;5652;48.406;10.820;2023-05-24T02:59:01;6.70;;;3.90;;
11191;SDS011;5652;48.406;10.820;2023-05-24T03:01:28;6.75;;;3.90;;
11191;SDS011;5652;48.406;10.820;2023-05-24T03:03:57;6.95;;;3.40;;
11191;SDS011;5652;48.406;10.820;2023-05-24T03:06:25;5.57;;;3.30;;
11191;SDS011;5652;48.406;10.820;2023-05-24T03:08:52;8.70;;;3.83;;
11191;SDS011;5652;48.406;10.820;2023-05-24T03:11:21;4.80;;;3.40;;
11191;SDS011;5652;48.406;10.820;2023-05-24T03:13:48;5.90;;;3.95;;
11191;SDS011;5652;48.406;10.820;2023-05-24T03:16:15;6.78;;;3.70;;
11191;SDS011;5652;48.406;10.820;2023-05-24T03:18:42;7.80;;;3.80;;
11191;SDS011;5652;48.406;10.820;2023-05-24T03:21:09;8.43;;;3.83;;
11191;SDS011;5652;48.406;10.820;2023-05-24T03:23:36;5.55;;;3.58;;
11191;SDS011;5652;48.406;10.820;2023-05-24T03:26:03;8.15;;;3.92;;
11191;SDS011;5652;48.406;10.820;2023-05-24T03:28:32;9.82;;;3.33;;
11191;SDS011;5652;48.406;10.820;2023-05-24T03:30:59;8.48;;;3.72;;
11191;SDS011;5652;48.406;10.820;2023-05-24T03:33:27;8.07;;;4.03;;
11191;SDS011;5652;48.406;10.820;2023-05-24T03:35:54;7.05;;;3.88;;
11191;SDS011;5652;48.406;10.820;2023-05-24T03:38:21;7.38;;;3.55;;
11191;SDS011;5652;48.406;10.820;2023-05-24T03:40:50;6.43;;;3.65;;
11191;SDS011;5652;48.406;10.820;2023-05-24T03:43:17;5.88;;;3.65;;
11191;SDS011;5652;48.406;10.820;2023-05-24T03:45:46;7.65;;;3.63;;
11191;SDS011;5652;48.406;10.820;2023-05-24T03:48:13;7.28;;;3.63;;
11191;SDS011;5652;48.406;10.820;2023-05-24T03:50:40;7.55;;;3.63;;
11191;SDS011;5652;48.406;10.820;2023-05-24T03:53:07;5.95;;;3.50;;
11191;SDS011;5652;48.406;10.820;2023-05-24T03:55:35;9.38;;;3.90;;
11191;SDS011;5652;48.406;10.820;2023-05-24T03:58:02;8.10;;;3.90;;
11191;SDS011;5652;48.406;10.820;2023-05-24T04:00:29;9.50;;;3.92;;
11191;SDS011;5652;48.406;10.820;2023-05-24T04:02:58;9.52;;;3.78;;
11191;SDS011;5652;48.406;10.820;2023-05-24T04:05:26;6.35;;;3.40;;
11191;SDS011;5652;48.406;10.820;2023-05-24T04:07:53;7.27;;;3.90;;
11191;SDS011;5652;48.406;10.820;2023-05-24T04:10:21;7.80;;;3.70;;
11191;SDS011;5652;48.406;10.820;2023-05-24T04:12:48;6.30;;;3.67;;
11191;SDS011;5652;48.406;10.820;2023-05-24T04:15:15;7.38;;;3.90;;
11191;SDS011;5652;48.406;10.820;2023-05-24T04:17:43;8.52;;;4.00;;
11191;SDS011;5652;48.406;10.820;2023-05-24T04:20:11;9.65;;;4.50;;
11191;SDS011;5652;48.406;10.820;2023-05-24T04:22:39;6.55;;;3.83;;
11191;SDS011;5652;48.406;10.820;2023-05-24T04:25:06;7.77;;;4.20;;
11191;SDS011;5652;48.406;10.820;2023-05-24T04:27:34;7.03;;;3.53;;
11191;SDS011;5652;48.406;10.820;2023-05-24T04:30:01;11.32;;;4.45;;
11191;SDS011;5652;48.406;10.820;2023-05-24T04:32:28;9.88;;;3.80;;
11191;SDS011;5652;48.406;10.820;2023-05-24T04:34:55;5.93;;;3.45;;
11191;SDS011;5652;48.406;10.820;2023-05-24T04:37:24;7.40;;;3.60;;
11191;SDS011;5652;48.406;10.820;2023-05-24T04:40:01;8.82;;;3.85;;
11191;SDS011;5652;48.406;10.820;2023-05-24T04:42:29;9.18;;;4.07;;
11191;SDS011;5652;48.406;10.820;2023-05-24T04:44:56;9.25;;;3.47;;
11191;SDS011;5652;48.406;10.820;2023-05-24T04:47:24;6.72;;;3.75;;
11191;SDS011;5652;48.406;10.820;2023-05-24T04:49:51;9.20;;;3.67;;
11191;SDS011;5652;48.406;10.820;2023-05-24T04:52:18;9.70;;;3.78;;
11191;SDS011;5652;48.406;10.820;2023-05-24T04:54:48;8.68;;;4.20;;
11191;SDS011;5652;48.406;10.820;2023-05-24T04:57:15;6.82;;;4.10;;
11191;SDS011;5652;48.406;10.820;2023-05-24T04:59:42;7.00;;;3.80;;
11191;SDS011;5652;48.406;10.820;2023-05-24T05:02:09;10.13;;;3.88;;
11191;SDS011;5652;48.406;10.820;2023-05-24T05:04:36;7.57;;;3.73;;
11191;SDS011;5652;48.406;10.820;2023-05-24T05:07:04;7.60;;;3.40;;
11191;SDS011;5652;48.406;10.820;2023-05-24T05:09:31;10.63;;;4.33;;
11191;SDS011;5652;48.406;10.820;2023-05-24T05:12:00;6.43;;;3.50;;
11191;SDS011;5652;48.406;10.820;2023-05-24T05:14:27;10.80;;;3.60;;
11191;SDS011;5652;48.406;10.820;2023-05-24T05:16:55;6.82;;;3.47;;
11191;SDS011;5652;48.406;10.820;2023-05-24T05:19:25;7.70;;;3.58;;
11191;SDS011;5652;48.406;10.820;2023-05-24T05:21:55;9.80;;;3.65;;
11191;SDS011;5652;48.406;10.820;2023-05-24T05:24:22;8.43;;;3.53;;
11191;SDS011;5652;48.406;10.820;2023-05-24T05:26:49;8.93;;;3.58;;
11191;SDS011;5652;48.406;10.820;2023-05-24T05:29:19;7.20;;;3.67;;
11191;SDS011;5652;48.406;10.820;2023-05-24T05:31:46;7.25;;;3.50;;
11191;SDS011;5652;48.406;10.820;2023-05-24T05:34:13;11.63;;;3.72;;
11191;SDS011;5652;48.406;10.820;2023-05-24T05:36:40;8.73;;;3.80;;
11191;SDS011;5652;48.406;10.820;2023-05-24T05:39:08;9.55;;;4.00;;
11191;SDS011;5652;48.406;10.820;2023-05-24T05:41:35;9.10;;;4.30;;
11191;SDS011;5652;48.406;10.820;2023-05-24T05:44:03;10.70;;;4.00;;
11191;SDS011;5652;48.406;10.820;2023-05-24T05:46:32;8.77;;;3.80;;
11191;SDS011;5652;48.406;10.820;2023-05-24T05:48:59;9.02;;;3.80;;
11191;SDS011;5652;48.406;10.820;2023-05-24T05:51:26;8.00;;;3.90;;
11191;SDS011;5652;48.406;10.820;2023-05-24T05:53:53;9.43;;;3.80;;
11191;SDS011;5652;48.406;10.820;2023-05-24T05:56:20;12.38;;;4.10;;
11191;SDS011;5652;48.406;10.820;2023-05-24T05:58:48;9.27;;;3.97;;
11191;SDS011;5652;48.406;10.820;2023-05-24T06:01:15;8.60;;;3.80;;
11191;SDS011;5652;48.406;10.820;2023-05-24T06:03:43;8.47;;;4.07;;
11191;SDS011;5652;48.406;10.820;2023-05-24T06:06:11;10.50;;;3.90;;
11191;SDS011;5652;48.406;10.820;2023-05-24T06:08:38;9.05;;;4.35;;
11191;SDS011;5652;48.406;10.820;2023-05-24T06:11:05;8.02;;;3.80;;
11191;SDS011;5652;48.406;10.820;2023-05-24T06:13:32;10.53;;;3.77;;
11191;SDS011;5652;48.406;10.820;2023-05-24T06:16:00;11.95;;;4.63;;
11191;SDS011;5652;48.406;10.820;2023-05-24T06:18:27;7.90;;;3.83;;
11191;SDS011;5652;48.406;10.820;2023-05-24T06:20:57;9.80;;;3.80;;
11191;SDS011;5652;48.406;10.820;2023-05-24T06:23:27;8.52;;;3.85;;
11191;SDS011;5652;48.406;10.820;2023-05-24T06:25:54;8.50;;;3.30;;
11191;SDS011;5652;48.406;10.820;2023-05-24T06:28:21;7.15;;;3.92;;
11191;SDS011;5652;48.406;10.820;2023-05-24T06:30:48;7.85;;;3.83;;
11191;SDS011;5652;48.406;10.820;2023-05-24T06:33:15;9.00;;;3.83;;
11191;SDS011;5652;48.406;10.820;2023-05-24T06:35:43;10.55;;;3.80;;
11191;SDS011;5652;48.406;10.820;2023-05-24T06:38:11;7.70;;;3.50;;
11191;SDS011;5652;48.406;10.820;2023-05-24T06:40:39;8.70;;;3.67;;
11191;SDS011;5652;48.406;10.820;2023-05-24T06:43:06;8.25;;;3.38;;
11191;SDS011;5652;48.406;10.820;2023-05-24T06:45:33;7.15;;;3.85;;
11191;SDS011;5652;48.406;10.820;2023-05-24T06:48:01;11.00;;;4.00;;
11191;SDS011;5652;48.406;10.820;2023-05-24T06:50:28;8.07;;;3.40;;
11191;SDS011;5652;48.406;10.820;2023-05-24T06:52:56;11.05;;;3.53;;
11191;SDS011;5652;48.406;10.820;2023-05-24T06:55:24;7.75;;;3.53;;
11191;SDS011;5652;48.406;10.820;2023-05-24T06:57:51;8.70;;;3.30;;
11191;SDS011;5652;48.406;10.820;2023-05-24T07:00:19;8.57;;;3.47;;
11191;SDS011;5652;48.406;10.820;2023-05-24T07:02:46;6.68;;;3.53;;
11191;SDS011;5652;48.406;10.820;2023-05-24T07:05:13;6.28;;;3.40;;
11191;SDS011;5652;48.406;10.820;2023-05-24T07:07:41;7.88;;;3.40;;
11191;SDS011;5652;48.406;10.820;2023-05-24T07:10:09;7.85;;;3.97;;
11191;SDS011;5652;48.406;10.820;2023-05-24T07:12:37;8.48;;;3.97;;
11191;SDS011;5652;48.406;10.820;2023-05-24T07:15:05;7.97;;;3.80;;
11191;SDS011;5652;48.406;10.820;2023-05-24T07:17:33;12.27;;;3.72;;
11191;SDS011;5652;48.406;10.820;2023-05-24T07:20:01;8.32;;;3.75;;
11191;SDS011;5652;48.406;10.820;2023-05-24T07:22:30;8.43;;;3.90;;
11191;SDS011;5652;48.406;10.820;2023-05-24T07:24:58;7.13;;;3.50;;
11191;SDS011;5652;48.406;10.820;2023-05-24T07:27:25;9.45;;;4.15;;
11191;SDS011;5652;48.406;10.820;2023-05-24T07:29:54;7.88;;;3.72;;
11191;SDS011;5652;48.406;10.820;2023-05-24T07:32:21;11.45;;;4.07;;
11191;SDS011;5652;48.406;10.820;2023-05-24T07:34:48;7.65;;;3.70;;
11191;SDS011;5652;48.406;10.820;2023-05-24T07:37:16;8.55;;;4.00;;
11191;SDS011;5652;48.406;10.820;2023-05-24T07:39:43;9.88;;;3.83;;
11191;SDS011;5652;48.406;10.820;2023-05-24T07:42:10;8.48;;;3.70;;
11191;SDS011;5652;48.406;10.820;2023-05-24T07:44:37;10.65;;;3.60;;
11191;SDS011;5652;48.406;10.820;2023-05-24T07:47:06;10.95;;;4.35;;
11191;SDS011;5652;48.406;10.820;2023-05-24T07:49:33;10.38;;;3.40;;
11191;SDS011;5652;48.406;10.820;2023-05-24T07:52:00;9.25;;;3.40;;
11191;SDS011;5652;48.406;10.820;2023-05-24T07:54:28;7.10;;;3.40;;
11191;SDS011;5652;48.406;10.820;2023-05-24T07:56:55;11.37;;;4.10;;
11191;SDS011;5652;48.406;10.820;2023-05-24T07:59:22;10.55;;;3.65;;
11191;SDS011;5652;48.406;10.820;2023-05-24T08:01:50;7.45;;;3.95;;
11191;SDS011;5652;48.406;10.820;2023-05-24T08:04:19;6.13;;;3.80;;
11191;SDS011;5652;48.406;10.820;2023-05-24T08:06:46;5.15;;;3.53;;
11191;SDS011;5652;48.406;10.820;2023-05-24T08:09:13;7.28;;;3.38;;
11191;SDS011;5652;48.406;10.820;2023-05-24T08:11:40;7.07;;;3.20;;
11191;SDS011;5652;48.406;10.820;2023-05-24T08:14:08;7.43;;;3.37;;
11191;SDS011;5652;48.406;10.820;2023-05-24T08:16:35;6.88;;;2.92;;
11191;SDS011;5652;48.406;10.820;2023-05-24T08:19:02;6.90;;;3.30;;
11191;SDS011;5652;48.406;10.820;2023-05-24T08:21:32;7.80;;;3.15;;
11191;SDS011;5652;48.406;10.820;2023-05-24T08:23:59;8.48;;;3.00;;
11191;SDS011;5652;48.406;10.820;2023-05-24T08:26:26;6.63;;;2.90;;
11191;SDS011;5652;48.406;10.820;2023-05-24T08:28:53;5.87;;;2.93;;
11191;SDS011;5652;48.406;10.820;2023-05-24T08:31:21;9.20;;;3.35;;
11191;SDS011;5652;48.406;10.820;2023-05-24T08:33:48;6.55;;;3.10;;
11191;SDS011;5652;48.406;10.820;2023-05-24T08:36:15;7.60;;;3.30;;
11191;SDS011;5652;48.406;10.820;2023-05-24T08:38:43;6.83;;;3.37;;
11191;SDS011;5652;48.406;10.820;2023-05-24T08:41:11;8.00;;;3.20;;
11191;SDS011;5652;48.406;10.820;2023-05-24T08:43:38;7.20;;;3.80;;
11191;SDS011;5652;48.406;10.820;2023-05-24T08:46:05;9.87;;;3.53;;
11191;SDS011;5652;48.406;10.820;2023-05-24T08:48:33;8.60;;;3.33;;
11191;SDS011;5652;48.406;10.820;2023-05-24T08:51:05;6.40;;;3.10;;
11191;SDS011;5652;48.406;10.820;2023-05-24T08:53:33;7.93;;;3.63;;
11191;SDS011;5652;48.406;10.820;2023-05-24T08:56:03;6.18;;;3.42;;
11191;SDS011;5652;48.406;10.820;2023-05-24T08:58:31;5.93;;;3.42;;
11191;SDS011;5652;48.406;10.820;2023-05-24T09:00:58;6.95;;;3.45;;
11191;SDS011;5652;48.406;10.820;2023-05-24T09:03:26;8.35;;;3.63;;
11191;SDS011;5652;48.406;10.820;2023-05-24T09:05:53;8.97;;;4.00;;
11191;SDS011;5652;48.406;10.820;2023-05-24T09:08:20;9.45;;;3.55;;
11191;SDS011;5652;48.406;10.820;2023-05-24T09:10:48;9.20;;;3.37;;
11191;SDS011;5652;48.406;10.820;2023-05-24T09:13:17;11.48;;;3.90;;
11191;SDS011;5652;48.406;10.820;2023-05-24T09:15:45;8.40;;;3.50;;
11191;SDS011;5652;48.406;10.820;2023-05-24T09:18:12;8.57;;;3.55;;
11191;SDS011;5652;48.406;10.820;2023-05-24T09:20:39;8.52;;;3.42;;
11191;SDS011;5652;48.406;10.820;2023-05-24T09:23:06;10.55;;;3.97;;
11191;SDS011;5652;48.406;10.820;2023-05-24T09:25:34;8.57;;;3.65;;
11191;SDS011;5652;48.406;10.820;2023-05-24T09:28:04;6.63;;;3.33;;
11191;SDS011;5652;48.406;10.820;2023-05-24T09:30:33;10.35;;;3.80;;
11191;SDS011;5652;48.406;10.820;2023-05-24T09:33:00;11.13;;;3.78;;
11191;SDS011;5652;48.406;10.820;2023-05-24T09:35:29;8.25;;;3.35;;
11191;SDS011;5652;48.406;10.820;2023-05-24T09:37:57;8.52;;;3.22;;
11191;SDS011;5652;48.406;10.820;2023-05-24T09:40:25;7.30;;;3.33;;
11191;SDS011;5652;48.406;10.820;2023-05-24T09:43:02;7.20;;;3.13;;
11191;SDS011;5652;48.406;10.820;2023-05-24T09:45:29;6.95;;;3.42;;
11191;SDS011;5652;48.406;10.820;2023-05-24T09:47:58;7.68;;;3.30;;
11191;SDS011;5652;48.406;10.820;2023-05-24T09:50:25;6.47;;;3.10;;
11191;SDS011;5652;48.406;10.820;2023-05-24T09:52:53;5.55;;;3.20;;
11191;SDS011;5652;48.406;10.820;2023-05-24T09:55:20;7.40;;;3.50;;
11191;SDS011;5652;48.406;10.820;2023-05-24T09:57:49;9.43;;;3.37;;
11191;SDS011;5652;48.406;10.820;2023-05-24T10:00:20;8.40;;;3.22;;
11191;SDS011;5652;48.406;10.820;2023-05-24T10:02:58;8.77;;;3.20;;
11191;SDS011;5652;48.406;10.820;2023-05-24T10:05:27;10.10;;;3.90;;
11191;SDS011;5652;48.406;10.820;2023-05-24T10:07:55;6.38;;;3.25;;
11191;SDS011;5652;48.406;10.820;2023-05-24T10:10:25;6.13;;;3.35;;
11191;SDS011;5652;48.406;10.820;2023-05-24T10:12:53;8.23;;;3.25;;
11191;SDS011;5652;48.406;10.820;2023-05-24T10:15:21;9.13;;;3.10;;
11191;SDS011;5652;48.406;10.820;2023-05-24T10:17:49;7.15;;;3.55;;
11191;SDS011;5652;48.406;10.820;2023-05-24T10:20:16;9.75;;;3.58;;
11191;SDS011;5652;48.406;10.820;2023-05-24T10:22:45;8.60;;;3.30;;
11191;SDS011;5652;48.406;10.820;2023-05-24T10:25:13;8.90;;;3.50;;
11191;SDS011;5652;48.406;10.820;2023-05-24T10:27:42;10.23;;;3.72;;
11191;SDS011;5652;48.406;10.820;2023-05-24T10:30:13;8.75;;;3.40;;
11191;SDS011;5652;48.406;10.820;2023-05-24T10:32:42;8.38;;;3.47;;
11191;SDS011;5652;48.406;10.820;2023-05-24T10:35:10;9.68;;;3.70;;
11191;SDS011;5652;48.406;10.820;2023-05-24T10:37:38;9.10;;;4.05;;
11191;SDS011;5652;48.406;10.820;2023-05-24T10:40:08;8.52;;;3.42;;
11191;SDS011;5652;48.406;10.820;2023-05-24T10:42:42;6.75;;;3.17;;
11191;SDS011;5652;48.406;10.820;2023-05-24T10:47:59;7.97;;;3.50;;
11191;SDS011;5652;48.406;10.820;2023-05-24T10:50:26;7.43;;;3.50;;
11191;SDS011;5652;48.406;10.820;2023-05-24T10:53:09;5.57;;;3.35;;
11191;SDS011;5652;48.406;10.820;2023-05-24T10:55:48;8.15;;;3.40;;
11191;SDS011;5652;48.406;10.820;2023-05-24T10:58:17;7.50;;;3.42;;
11191;SDS011;5652;48.406;10.820;2023-05-24T11:00:44;8.32;;;3.70;;
11191;SDS011;5652;48.406;10.820;2023-05-24T11:03:12;12.70;;;3.87;;
11191;SDS011;5652;48.406;10.820;2023-05-24T11:05:48;9.40;;;3.58;;
11191;SDS011;5652;48.406;10.820;2023-05-24T11:08:20;7.72;;;3.65;;
11191;SDS011;5652;48.406;10.820;2023-05-24T11:10:48;7.93;;;3.67;;
11191;SDS011;5652;48.406;10.820;2023-05-24T11:13:17;9.75;;;3.67;;
11191;SDS011;5652;48.406;10.820;2023-05-24T11:15:48;10.15;;;3.88;;
11191;SDS011;5652;48.406;10.820;2023-05-24T11:18:16;8.23;;;3.80;;
11191;SDS011;5652;48.406;10.820;2023-05-24T11:20:46;8.75;;;3.50;;
11191;SDS011;5652;48.406;10.820;2023-05-24T11:23:13;7.32;;;3.42;;
11191;SDS011;5652;48.406;10.820;2023-05-24T11:25:41;8.10;;;3.78;;
11191;SDS011;5652;48.406;10.820;2023-05-24T11:28:10;10.65;;;3.80;;
11191;SDS011;5652;48.406;10.820;2023-05-24T11:30:38;7.95;;;3.45;;
11191;SDS011;5652;48.406;10.820;2023-05-24T11:33:12;7.45;;;3.58;;
11191;SDS011;5652;48.406;10.820;2023-05-24T11:35:40;11.05;;;3.72;;
11191;SDS011;5652;48.406;10.820;2023-05-24T11:38:08;8.75;;;3.70;;
11191;SDS011;5652;48.406;10.820;2023-05-24T11:40:37;8.10;;;3.40;;
11191;SDS011;5652;48.406;10.820;2023-05-24T11:43:10;8.63;;;3.33;;
11191;SDS011;5652;48.406;10.820;2023-05-24T11:45:39;10.00;;;3.55;;
11191;SDS011;5652;48.406;10.820;2023-05-24T11:48:07;7.40;;;3.70;;
11191;SDS011;5652;48.406;10.820;2023-05-24T11:50:38;5.90;;;3.20;;
11191;SDS011;5652;48.406;10.820;2023-05-24T11:53:05;13.63;;;3.47;;
11191;SDS011;5652;48.406;10.820;2023-05-24T11:55:32;9.02;;;3.42;;
11191;SDS011;5652;48.406;10.820;2023-05-24T11:58:00;9.02;;;3.42;;
11191;SDS011;5652;48.406;10.820;2023-05-24T12:00:29;7.95;;;3.42;;
11191;SDS011;5652;48.406;10.820;2023-05-24T12:02:56;7.47;;;3.38;;
11191;SDS011;5652;48.406;10.820;2023-05-24T12:05:29;7.13;;;3.57;;
11191;SDS011;5652;48.406;10.820;2023-05-24T12:08:00;7.25;;;3.20;;
11191;SDS011;5652;48.406;10.820;2023-05-24T12:10:29;9.10;;;3.37;;
11191;SDS011;5652;48.406;10.820;2023-05-24T12:12:56;8.07;;;3.92;;
11191;SDS011;5652;48.406;10.820;2023-05-24T12:15:24;10.98;;;4.00;;
11191;SDS011;5652;48.406;10.820;2023-05-24T12:17:52;9.57;;;3.50;;
11191;SDS011;5652;48.406;10.820;2023-05-24T12:20:19;8.98;;;4.00;;
11191;SDS011;5652;48.406;10.820;2023-05-24T12:22:47;7.38;;;3.60;;
11191;SDS011;5652;48.406;10.820;2023-05-24T12:25:15;8.35;;;3.70;;
11191;SDS011;5652;48.406;10.820;2023-05-24T12:27:45;9.52;;;4.00;;
11191;SDS011;5652;48.406;10.820;2023-05-24T12:30:13;12.35;;;4.13;;
11191;SDS011;5652;48.406;10.820;2023-05-24T12:32:44;7.63;;;3.50;;
11191;SDS011;5652;48.406;10.820;2023-05-24T12:35:14;7.85;;;4.05;;
11191;SDS011;5652;48.406;10.820;2023-05-24T12:37:43;7.70;;;3.97;;
11191;SDS011;5652;48.406;10.820;2023-05-24T12:40:14;8.15;;;3.95;;
11191;SDS011;5652;48.406;10.820;2023-05-24T12:42:42;9.15;;;4.28;;
11191;SDS011;5652;48.406;10.820;2023-05-24T12:45:10;9.02;;;3.75;;
11191;SDS011;5652;48.406;10.820;2023-05-24T12:47:37;9.05;;;3.83;;
11191;SDS011;5652;48.406;10.820;2023-05-24T12:50:08;7.27;;;3.87;;
11191;SDS011;5652;48.406;10.820;2023-05-24T12:52:37;8.65;;;3.80;;
11191;SDS011;5652;48.406;10.820;2023-05-24T12:55:04;9.02;;;4.13;;
11191;SDS011;5652;48.406;10.820;2023-05-24T12:57:32;6.82;;;3.75;;
11191;SDS011;5652;48.406;10.820;2023-05-24T12:59:59;11.38;;;4.28;;
11191;SDS011;5652;48.406;10.820;2023-05-24T13:02:26;8.63;;;3.92;;
11191;SDS011;5652;48.406;10.820;2023-05-24T13:04:53;8.48;;;3.90;;
11191;SDS011;5652;48.406;10.820;2023-05-24T13:07:20;8.60;;;3.83;;
11191;SDS011;5652;48.406;10.820;2023-05-24T13:09:49;7.70;;;4.00;;
11191;SDS011;5652;48.406;10.820;2023-05-24T13:12:16;12.32;;;4.22;;
11191;SDS011;5652;48.406;10.820;2023-05-24T13:14:43;7.95;;;3.97;;
11191;SDS011;5652;48.406;10.820;2023-05-24T13:17:11;10.88;;;4.32;;
11191;SDS011;5652;48.406;10.820;2023-05-24T13:19:46;8.88;;;3.97;;
11191;SDS011;5652;48.406;10.820;2023-05-24T13:22:13;9.00;;;4.20;;
11191;SDS011;5652;48.406;10.820;2023-05-24T13:24:41;7.68;;;4.00;;
11191;SDS011;5652;48.406;10.820;2023-05-24T13:27:09;8.75;;;3.85;;
11191;SDS011;5652;48.406;10.820;2023-05-24T13:29:36;9.57;;;3.90;;
11191;SDS011;5652;48.406;10.820;2023-05-24T13:32:04;8.77;;;3.90;;
11191;SDS011;5652;48.406;10.820;2023-05-24T13:34:31;9.33;;;4.07;;
11191;SDS011;5652;48.406;10.820;2023-05-24T13:36:58;10.45;;;4.40;;
11191;SDS011;5652;48.406;10.820;2023-05-24T13:39:26;8.63;;;3.90;;
11191;SDS011;5652;48.406;10.820;2023-05-24T13:41:53;10.30;;;4.13;;
11191;SDS011;5652;48.406;10.820;2023-05-24T13:44:22;7.27;;;4.33;;
11191;SDS011;5652;48.406;10.820;2023-05-24T13:46:49;10.65;;;4.18;;
11191;SDS011;5652;48.406;10.820;2023-05-24T13:49:16;7.10;;;3.75;;
11191;SDS011;5652;48.406;10.820;2023-05-24T13:51:43;8.10;;;3.97;;
11191;SDS011;5652;48.406;10.820;2023-05-24T13:54:10;7.75;;;3.72;;
11191;SDS011;5652;48.406;10.820;2023-05-24T13:56:38;12.88;;;3.83;;
11191;SDS011;5652;48.406;10.820;2023-05-24T13:59:06;9.00;;;3.80;;
11191;SDS011;5652;48.406;10.820;2023-05-24T14:01:35;10.18;;;3.90;;
11191;SDS011;5652;48.406;10.820;2023-05-24T14:04:03;9.20;;;3.97;;
11191;SDS011;5652;48.406;10.820;2023-05-24T14:06:31;9.57;;;4.47;;
11191;SDS011;5652;48.406;10.820;2023-05-24T14:09:01;8.00;;;3.67;;
11191;SDS011;5652;48.406;10.820;2023-05-24T14:11:28;10.57;;;4.25;;
11191;SDS011;5652;48.406;10.820;2023-05-24T14:13:56;9.65;;;4.13;;
11191;SDS011;5652;48.406;10.820;2023-05-24T14:16:23;10.70;;;3.90;;
11191;SDS011;5652;48.406;10.820;2023-05-24T14:18:52;8.68;;;4.15;;
11191;SDS011;5652;48.406;10.820;2023-05-24T14:21:19;11.63;;;4.40;;
11191;SDS011;5652;48.406;10.820;2023-05-24T14:23:47;9.77;;;4.57;;
11191;SDS011;5652;48.406;10.820;2023-05-24T14:26:15;8.40;;;4.15;;
11191;SDS011;5652;48.406;10.820;2023-05-24T14:28:42;8.43;;;4.43;;
11191;SDS011;5652;48.406;10.820;2023-05-24T14:31:09;9.80;;;4.13;;
11191;SDS011;5652;48.406;10.820;2023-05-24T14:33:36;10.97;;;4.30;;
11191;SDS011;5652;48.406;10.820;2023-05-24T14:36:05;10.82;;;4.40;;
11191;SDS011;5652;48.406;10.820;2023-05-24T14:38:33;11.38;;;4.28;;
11191;SDS011;5652;48.406;10.820;2023-05-24T14:41:00;10.40;;;4.20;;
11191;SDS011;5652;48.406;10.820;2023-05-24T14:43:30;10.13;;;4.10;;
11191;SDS011;5652;48.406;10.820;2023-05-24T14:45:57;10.85;;;4.10;;
11191;SDS011;5652;48.406;10.820;2023-05-24T14:48:24;10.52;;;4.40;;
11191;SDS011;5652;48.406;10.820;2023-05-24T14:50:51;12.90;;;4.60;;
11191;SDS011;5652;48.406;10.820;2023-05-24T14:53:20;11.45;;;4.72;;